This is the latest recevied weather packets stored in our database for station/object OM6ACB-6. If no packets are shown the sender has not sent any weather packets the latest 10 day(s).
| Time | Temp. | Humidity | Pressure | Rain* | Wind** | Luminosity | Snow |
|---|---|---|---|---|---|---|---|
| 1788447891 | 22.22° C | 21% | 1023.1 hPa | 0 mm | - | - | - |
| 1788447291 | 22.22° C | 21% | 1023.1 hPa | 0 mm | - | - | - |
| 1788446690 | 22.78° C | 21% | 1023.2 hPa | 0 mm | - | - | - |
| 1788446090 | 23.33° C | 21% | 1023.1 hPa | 0 mm | - | - | - |
| 1788445490 | 22.78° C | 21% | 1023.1 hPa | 0 mm | - | - | - |
| 1788444889 | 23.89° C | 21% | 1023.2 hPa | 0 mm | - | - | - |
| 1788444289 | 23.33° C | 21% | 1023.1 hPa | 0 mm | - | - | - |
| 1788443689 | 23.33° C | 21% | 1023.2 hPa | 0 mm | - | - | - |
| 1788443089 | 23.89° C | 21% | 1023.5 hPa | 0 mm | - | - | - |
| 1788442488 | 24.44° C | 20% | 1023.6 hPa | 0 mm | - | - | - |
| 1788441888 | 23.89° C | 21% | 1023.6 hPa | 0 mm | - | - | - |
| 1788441288 | 23.89° C | 21% | 1023.6 hPa | 0 mm | - | - | - |
| 1788440688 | 23.33° C | 21% | 1023.5 hPa | 0 mm | - | - | - |
| 1788440087 | 22.22° C | 21% | 1023.4 hPa | 0 mm | - | - | - |
| 1788439487 | 21.67° C | 22% | 1023.5 hPa | 0 mm | - | - | - |
| 1788438887 | 22.22° C | 22% | 1023.5 hPa | 0 mm | - | - | - |
| 1788438286 | 22.22° C | 21% | 1023.6 hPa | 0 mm | - | - | - |
| 1788437086 | 22.78° C | 21% | 1023.7 hPa | 0 mm | - | - | - |
| 1788436491 | 22.22° C | 22% | 1023.5 hPa | 0 mm | - | - | - |
| 1788435885 | 21.67° C | 22% | 1023.5 hPa | 0 mm | - | - | - |
| 1788435285 | 21.67° C | 22% | 1023.5 hPa | 0 mm | - | - | - |
| 1788434685 | 22.22° C | 21% | 1023.4 hPa | 0 mm | - | - | - |
| 1788434084 | -18.33° C | 12% | 1016.2 hPa | 0 mm | - | - | - |
| 1788433486 | 27.22° C | 20% | 1024.3 hPa | 0 mm | - | - | - |
| 1788432884 | 25.56° C | 20% | 1023.9 hPa | 0 mm | - | - | - |
* Rain latest hour (hover to see other rain measurements)
** Current wind speed in m/s (hover to see current wind gust speed)